createdAt,value
2022-09-07T00:00:39.219Z,47.77
2022-09-07T00:01:39.210Z,36.44
2022-09-07T00:02:39.242Z,42.17
2022-09-07T00:03:40.203Z,43.70
2022-09-07T00:04:39.279Z,39.16
2022-09-07T00:05:39.227Z,50.07
2022-09-07T00:06:39.189Z,36.09
2022-09-07T00:07:39.171Z,39.36
2022-09-07T00:08:39.173Z,44.93
2022-09-07T00:09:39.194Z,48.37
2022-09-07T00:10:39.141Z,47.55
2022-09-07T00:11:39.139Z,36.39
2022-09-07T00:12:39.132Z,38.32
2022-09-07T00:13:39.121Z,50.56
2022-09-07T00:14:39.107Z,55.77
2022-09-07T00:15:39.133Z,45.32
2022-09-07T00:16:39.156Z,46.11
2022-09-07T00:17:39.119Z,35.93
2022-09-07T00:18:42.483Z,37.70
2022-09-07T00:19:41.069Z,42.91
2022-09-07T00:20:39.098Z,52.06
2022-09-07T00:21:39.067Z,40.41
2022-09-07T00:22:39.042Z,43.03
2022-09-07T00:23:40.041Z,43.73
2022-09-07T00:24:39.033Z,35.46
2022-09-07T00:25:39.063Z,35.04
2022-09-07T00:26:39.017Z,35.56
2022-09-07T00:27:39.017Z,41.71
2022-09-07T00:28:39.006Z,40.68
2022-09-07T00:29:38.991Z,42.95
2022-09-07T00:30:39.013Z,35.64
2022-09-07T00:31:39.060Z,40.93
2022-09-07T00:32:38.979Z,54.64
2022-09-07T00:33:38.961Z,53.50
2022-09-07T00:34:38.953Z,36.27
2022-09-07T00:35:38.986Z,33.81
2022-09-07T00:36:38.936Z,34.22
2022-09-07T00:37:38.974Z,34.77
2022-09-07T00:38:38.929Z,35.95
2022-09-07T00:39:38.970Z,40.86
2022-09-07T00:40:38.945Z,44.65
2022-09-07T00:41:38.900Z,39.93
2022-09-07T00:42:38.904Z,44.72
2022-09-07T00:43:38.905Z,46.45
2022-09-07T00:44:38.882Z,46.45
2022-09-07T00:45:38.901Z,46.90
2022-09-07T00:46:38.923Z,50.45
2022-09-07T00:47:38.855Z,40.75
2022-09-07T00:48:38.851Z,44.65
2022-09-07T00:49:38.842Z,46.35
2022-09-07T00:50:38.869Z,37.01
2022-09-07T00:51:38.831Z,48.27
2022-09-07T00:52:38.847Z,35.07
2022-09-07T00:53:38.825Z,40.43
2022-09-07T00:54:38.804Z,38.06
2022-09-07T00:55:38.829Z,54.74
2022-09-07T00:56:38.810Z,39.43
2022-09-07T00:57:38.780Z,34.90
2022-09-07T00:58:38.777Z,35.23
2022-09-07T00:59:38.773Z,39.62
2022-09-07T01:00:38.790Z,44.21
2022-09-07T01:01:38.858Z,46.20
2022-09-07T01:02:38.853Z,41.89
2022-09-07T01:03:38.729Z,40.34
2022-09-07T01:04:38.724Z,37.89
2022-09-07T01:05:38.745Z,56.34
2022-09-07T01:06:38.707Z,41.74
2022-09-07T01:07:38.700Z,40.25
2022-09-07T01:08:38.697Z,35.15
2022-09-07T01:09:38.688Z,42.86
2022-09-07T01:10:38.701Z,47.87
2022-09-07T01:11:38.665Z,44.94
2022-09-07T01:12:38.658Z,38.12
2022-09-07T01:13:38.653Z,41.16
2022-09-07T01:14:38.675Z,35.80
2022-09-07T01:15:38.694Z,36.07
2022-09-07T01:16:38.637Z,53.57
2022-09-07T01:17:38.624Z,44.23
2022-09-07T01:18:38.617Z,50.98
2022-09-07T01:19:38.608Z,46.31
2022-09-07T01:20:38.645Z,40.56
2022-09-07T01:21:38.589Z,45.20
2022-09-07T01:22:38.587Z,44.03
2022-09-07T01:23:38.582Z,42.16
2022-09-07T01:24:38.595Z,55.10
2022-09-07T01:25:38.565Z,46.18
2022-09-07T01:26:38.581Z,44.46
2022-09-07T01:27:38.547Z,52.44
2022-09-07T01:28:38.540Z,37.59
2022-09-07T01:29:38.534Z,40.92
2022-09-07T01:30:38.520Z,43.44
2022-09-07T01:31:38.547Z,47.28
2022-09-07T01:32:38.553Z,37.20
2022-09-07T01:33:38.500Z,58.16
2022-09-07T01:34:38.501Z,35.29
2022-09-07T01:35:38.472Z,48.44
2022-09-07T01:36:39.501Z,43.47
2022-09-07T01:37:38.470Z,48.79
2022-09-07T01:38:38.467Z,40.38
2022-09-07T01:39:38.506Z,46.86
2022-09-07T01:40:38.452Z,42.74
2022-09-07T01:41:38.466Z,43.40
2022-09-07T01:42:39.435Z,48.82
2022-09-07T01:43:38.434Z,41.38
2022-09-07T01:44:38.438Z,42.62
2022-09-07T01:45:38.427Z,53.67
2022-09-07T01:46:38.454Z,48.81
2022-09-07T01:47:38.399Z,40.90
2022-09-07T01:48:38.393Z,42.91
2022-09-07T01:49:38.388Z,45.20
2022-09-07T01:50:38.386Z,38.73
2022-09-07T01:51:38.408Z,48.27
2022-09-07T01:52:38.364Z,36.72
2022-09-07T01:53:38.363Z,51.74
2022-09-07T01:54:38.348Z,39.92
2022-09-07T01:55:38.334Z,50.54
2022-09-07T01:56:38.361Z,39.13
2022-09-07T01:57:38.329Z,41.13
2022-09-07T01:58:38.312Z,41.27
2022-09-07T01:59:38.305Z,41.54
2022-09-07T02:00:38.296Z,41.93
2022-09-07T02:01:38.344Z,35.77
2022-09-07T02:02:39.377Z,39.78
2022-09-07T02:03:38.274Z,44.96
2022-09-07T02:04:38.265Z,40.51
2022-09-07T02:05:38.257Z,46.71
2022-09-07T02:06:38.275Z,37.85
2022-09-07T02:07:38.253Z,49.81
2022-09-07T02:08:38.237Z,42.56
2022-09-07T02:09:38.234Z,34.37
2022-09-07T02:10:38.219Z,53.45
2022-09-07T02:11:38.245Z,48.51
2022-09-07T02:12:38.199Z,38.50
2022-09-07T02:13:38.196Z,55.23
2022-09-07T02:14:38.185Z,43.28
2022-09-07T02:15:38.248Z,43.78
2022-09-07T02:16:38.212Z,41.96
2022-09-07T02:17:38.163Z,49.46
2022-09-07T02:18:38.151Z,46.14
2022-09-07T02:19:38.153Z,36.89
2022-09-07T02:20:38.135Z,47.66
2022-09-07T02:21:38.125Z,43.16
2022-09-07T02:22:38.147Z,45.30
2022-09-07T02:23:38.123Z,40.99
2022-09-07T02:24:38.098Z,51.44
2022-09-07T02:25:38.093Z,46.09
2022-09-07T02:26:38.096Z,43.68
2022-09-07T02:27:38.102Z,39.74
2022-09-07T02:28:38.068Z,44.24
2022-09-07T02:29:38.066Z,46.15
2022-09-07T02:30:38.190Z,53.12
2022-09-07T02:31:38.048Z,46.34
2022-09-07T02:32:38.067Z,43.98
2022-09-07T02:33:38.051Z,42.52
2022-09-07T02:34:38.021Z,39.35
2022-09-07T02:35:38.011Z,44.00
2022-09-07T02:36:38.010Z,37.05
2022-09-07T02:37:38.045Z,51.00
2022-09-07T02:38:37.993Z,45.80
2022-09-07T02:39:38.011Z,45.30
2022-09-07T02:40:37.975Z,50.06
2022-09-07T02:41:37.966Z,59.94
2022-09-07T02:42:37.988Z,51.30
2022-09-07T02:43:37.955Z,50.12
2022-09-07T02:44:37.943Z,47.03
2022-09-07T02:45:37.932Z,49.48
2022-09-07T02:46:38.088Z,52.23
2022-09-07T02:47:37.924Z,42.62
2022-09-07T02:48:37.911Z,41.59
2022-09-07T02:49:38.236Z,38.93
2022-09-07T02:50:37.903Z,48.94
2022-09-07T02:51:37.901Z,56.83
2022-09-07T02:52:37.906Z,44.14
2022-09-07T02:53:37.872Z,46.30
2022-09-07T02:54:37.871Z,38.84
2022-09-07T02:55:37.856Z,46.26
2022-09-07T02:56:37.851Z,42.17
2022-09-07T02:57:37.871Z,45.28
2022-09-07T02:58:37.834Z,49.84
2022-09-07T02:59:37.831Z,51.09
2022-09-07T03:00:37.849Z,45.46
2022-09-07T03:01:37.910Z,45.20
2022-09-07T03:02:37.907Z,58.11
2022-09-07T03:03:37.811Z,48.51
2022-09-07T03:04:37.811Z,50.85
2022-09-07T03:05:37.780Z,51.49
2022-09-07T03:06:37.777Z,48.31
2022-09-07T03:07:42.173Z,46.60
2022-09-07T03:08:39.777Z,49.23
2022-09-07T03:09:37.749Z,49.07
2022-09-07T03:10:37.753Z,52.84
2022-09-07T03:11:37.745Z,49.64
2022-09-07T03:12:37.764Z,51.65
2022-09-07T03:13:37.728Z,50.45
2022-09-07T03:14:37.726Z,59.45
2022-09-07T03:15:37.739Z,57.53
2022-09-07T03:16:37.697Z,53.86
2022-09-07T03:17:37.716Z,52.18
2022-09-07T03:18:37.710Z,57.00
2022-09-07T03:19:37.673Z,53.01
2022-09-07T03:20:37.670Z,51.07
2022-09-07T03:21:37.672Z,47.27
2022-09-07T03:22:37.679Z,48.45
2022-09-07T03:23:37.646Z,50.83
2022-09-07T03:24:37.637Z,44.90
2022-09-07T03:25:37.629Z,51.99
2022-09-07T03:26:37.618Z,51.53
2022-09-07T03:27:37.654Z,53.65
2022-09-07T03:28:37.606Z,47.42
2022-09-07T03:29:41.413Z,55.10
2022-09-07T03:30:38.649Z,51.52
2022-09-07T03:31:37.592Z,47.63
2022-09-07T03:32:37.621Z,58.36
2022-09-07T03:33:37.573Z,58.32
2022-09-07T03:34:37.568Z,50.20
2022-09-07T03:35:37.564Z,49.53
2022-09-07T03:36:37.559Z,59.56
2022-09-07T03:37:37.572Z,60.16
2022-09-07T03:38:37.534Z,51.43
2022-09-07T03:39:37.580Z,54.96
2022-09-07T03:40:37.524Z,58.34
2022-09-07T03:41:37.513Z,57.28
2022-09-07T03:42:37.545Z,55.58
2022-09-07T03:43:37.498Z,54.14
2022-09-07T03:44:37.490Z,55.21
2022-09-07T03:45:37.534Z,52.14
2022-09-07T03:46:37.483Z,55.96
2022-09-07T03:47:37.527Z,56.85
2022-09-07T03:48:37.460Z,50.37
2022-09-07T03:49:37.455Z,54.34
2022-09-07T03:50:37.445Z,53.98
2022-09-07T03:51:37.442Z,51.97
2022-09-07T03:52:37.455Z,47.48
2022-09-07T03:53:37.424Z,56.94
2022-09-07T03:54:39.648Z,51.85
2022-09-07T03:55:38.421Z,47.72
2022-09-07T03:56:37.395Z,53.23
2022-09-07T03:57:37.423Z,51.17
2022-09-07T03:58:37.388Z,57.30
2022-09-07T03:59:37.377Z,61.90
2022-09-07T04:00:37.368Z,54.52
2022-09-07T04:01:37.399Z,52.34
2022-09-07T04:02:37.464Z,51.92
2022-09-07T04:03:37.343Z,55.23
2022-09-07T04:04:37.341Z,54.00
2022-09-07T04:05:37.328Z,56.26
2022-09-07T04:06:37.327Z,53.50
2022-09-07T04:07:37.347Z,51.58
2022-09-07T04:08:37.328Z,54.55
2022-09-07T04:09:37.301Z,43.82
2022-09-07T04:10:37.290Z,54.61
2022-09-07T04:11:37.284Z,56.35
2022-09-07T04:12:37.314Z,53.45
2022-09-07T04:13:37.276Z,56.33
2022-09-07T04:14:37.271Z,53.08
2022-09-07T04:15:37.258Z,53.53
2022-09-07T04:16:37.323Z,60.73
2022-09-07T04:17:37.267Z,57.43
2022-09-07T04:18:37.235Z,54.45
2022-09-07T04:19:37.221Z,56.24
2022-09-07T04:20:37.241Z,55.63
2022-09-07T04:21:37.229Z,56.03
2022-09-07T04:22:37.228Z,54.29
2022-09-07T04:23:37.197Z,53.49
2022-09-07T04:24:37.182Z,57.66
2022-09-07T04:25:37.177Z,56.49
2022-09-07T04:26:37.170Z,51.21
2022-09-07T04:27:37.195Z,50.64
2022-09-07T04:28:37.144Z,57.98
2022-09-07T04:29:37.153Z,56.06
2022-09-07T04:30:37.173Z,51.38
2022-09-07T04:31:37.131Z,51.86
2022-09-07T04:32:37.145Z,58.38
2022-09-07T04:33:37.120Z,55.37
2022-09-07T04:34:37.108Z,55.36
2022-09-07T04:35:37.103Z,56.49
2022-09-07T04:36:37.093Z,50.95
2022-09-07T04:37:37.118Z,54.79
2022-09-07T04:38:37.079Z,55.04
2022-09-07T04:39:37.106Z,54.72
2022-09-07T04:40:37.068Z,53.71
2022-09-07T04:41:37.065Z,54.76
2022-09-07T04:42:37.076Z,56.35
2022-09-07T04:43:37.039Z,54.18
2022-09-07T04:44:37.032Z,53.49
2022-09-07T04:45:37.089Z,55.41
2022-09-07T04:46:37.018Z,52.66
2022-09-07T04:47:37.037Z,56.11
2022-09-07T04:48:37.102Z,55.64
2022-09-07T04:49:36.992Z,54.83
2022-09-07T04:50:36.981Z,53.41
2022-09-07T04:51:36.975Z,53.45
2022-09-07T04:52:36.993Z,56.89
2022-09-07T04:53:36.959Z,51.86
2022-09-07T04:54:36.966Z,53.20
2022-09-07T04:55:36.995Z,56.40
2022-09-07T04:56:36.944Z,56.15
2022-09-07T04:57:36.963Z,57.98
2022-09-07T04:58:36.924Z,56.09
2022-09-07T04:59:36.917Z,49.83
2022-09-07T05:00:36.909Z,53.11
2022-09-07T05:01:36.927Z,55.77
2022-09-07T05:02:37.046Z,54.45
2022-09-07T05:03:36.885Z,54.49
2022-09-07T05:04:36.877Z,57.61
2022-09-07T05:05:36.877Z,57.34
2022-09-07T05:06:36.866Z,55.46
2022-09-07T05:07:36.879Z,56.17
2022-09-07T05:08:36.849Z,57.67
2022-09-07T05:09:36.853Z,58.95
2022-09-07T05:10:36.833Z,61.45
2022-09-07T05:11:36.823Z,58.07
2022-09-07T05:12:36.843Z,58.81
2022-09-07T05:13:36.813Z,60.28
2022-09-07T05:14:36.803Z,57.40
2022-09-07T05:15:36.793Z,54.34
2022-09-07T05:16:36.871Z,56.67
2022-09-07T05:17:36.794Z,55.90
2022-09-07T05:18:36.765Z,54.29
2022-09-07T05:19:36.761Z,61.41
2022-09-07T05:20:36.749Z,57.79
2022-09-07T05:21:36.746Z,56.71
2022-09-07T05:22:36.771Z,57.76
2022-09-07T05:23:36.729Z,55.13
2022-09-07T05:24:36.717Z,58.15
2022-09-07T05:25:36.714Z,53.10
2022-09-07T05:26:36.706Z,55.87
2022-09-07T05:27:36.723Z,61.84
2022-09-07T05:28:36.690Z,56.03
2022-09-07T05:31:38.666Z,56.20
2022-09-07T05:32:36.690Z,58.44
2022-09-07T05:34:38.643Z,60.44
2022-09-07T05:35:36.634Z,60.16
2022-09-07T05:36:36.635Z,59.81
2022-09-07T05:37:36.646Z,56.72
2022-09-07T05:38:36.615Z,58.23
2022-09-07T05:39:36.685Z,60.89
2022-09-07T05:40:40.499Z,58.83
2022-09-07T05:41:37.592Z,57.46
2022-09-07T05:42:36.632Z,56.30
2022-09-07T05:43:37.100Z,57.59
2022-09-07T05:44:44.354Z,56.16
2022-09-07T05:45:38.604Z,54.69
2022-09-07T05:46:36.554Z,56.40
2022-09-07T05:47:36.566Z,58.33
2022-09-07T05:48:36.534Z,55.89
2022-09-07T05:49:36.534Z,57.21
2022-09-07T05:50:36.545Z,56.63
2022-09-07T05:51:36.512Z,57.23
2022-09-07T05:52:36.529Z,59.61
2022-09-07T05:53:36.494Z,55.57
2022-09-07T05:54:36.498Z,58.59
2022-09-07T05:55:36.479Z,56.85
2022-09-07T05:56:36.547Z,58.83
2022-09-07T05:57:36.489Z,56.63
2022-09-07T05:58:36.455Z,55.07
2022-09-07T05:59:36.444Z,53.27
2022-09-07T06:00:36.449Z,55.20
2022-09-07T06:01:36.434Z,56.62
2022-09-07T06:02:39.668Z,55.94
2022-09-07T06:03:37.424Z,56.90
2022-09-07T06:04:36.418Z,59.35
2022-09-07T06:05:36.407Z,53.66
2022-09-07T06:06:36.398Z,52.11
2022-09-07T06:07:36.415Z,54.61
2022-09-07T06:08:36.384Z,53.88
2022-09-07T06:10:44.891Z,54.59
2022-09-07T06:11:38.357Z,55.85
2022-09-07T06:12:36.375Z,50.64
2022-09-07T06:13:36.348Z,53.44
2022-09-07T06:14:36.343Z,54.53
2022-09-07T06:15:36.332Z,55.73
2022-09-07T06:16:36.378Z,54.14
2022-09-07T06:17:36.341Z,53.81
2022-09-07T06:18:36.311Z,53.40
2022-09-07T06:19:36.297Z,56.42
2022-09-07T06:20:36.292Z,53.74
2022-09-07T06:21:36.283Z,54.57
2022-09-07T06:22:36.298Z,51.88
2022-09-07T06:23:36.266Z,57.54
2022-09-07T06:24:36.270Z,58.58
2022-09-07T06:25:36.254Z,56.88
2022-09-07T06:26:36.244Z,52.78
2022-09-07T06:27:36.263Z,58.72
2022-09-07T06:28:36.227Z,60.70
2022-09-07T06:29:36.222Z,56.99
2022-09-07T06:30:36.218Z,53.33
2022-09-07T06:33:37.217Z,52.98
2022-09-07T06:34:36.182Z,54.87
2022-09-07T06:35:36.174Z,52.07
2022-09-07T06:36:36.167Z,53.20
2022-09-07T06:37:36.184Z,55.18
2022-09-07T06:38:36.149Z,52.63
2022-09-07T06:39:36.217Z,55.21
2022-09-07T06:40:36.131Z,53.78
2022-09-07T06:42:38.150Z,58.63
2022-09-07T06:43:36.118Z,55.39
2022-09-07T06:44:36.109Z,48.27
2022-09-07T06:45:36.133Z,53.08
2022-09-07T06:47:38.115Z,50.88
2022-09-07T06:48:36.103Z,60.73
2022-09-07T06:49:36.071Z,55.55
2022-09-07T06:50:36.091Z,51.06
2022-09-07T06:51:36.089Z,56.14
2022-09-07T06:53:39.569Z,52.49
2022-09-07T06:55:38.023Z,56.74
2022-09-07T06:56:36.010Z,55.63
2022-09-07T06:57:36.018Z,54.83
2022-09-07T06:58:39.138Z,51.38
2022-09-07T06:59:36.993Z,52.10
2022-09-07T07:00:36.045Z,56.11
2022-09-07T07:01:35.979Z,60.76
2022-09-07T07:02:35.973Z,54.58
2022-09-07T07:03:36.049Z,54.77
2022-09-07T07:04:40.575Z,51.36
2022-09-07T07:05:37.944Z,54.05
2022-09-07T07:06:35.945Z,54.16
2022-09-07T07:07:35.943Z,59.16
2022-09-07T07:08:35.950Z,56.29
2022-09-07T07:09:35.917Z,55.12
2022-09-07T07:10:35.907Z,56.28
2022-09-07T07:11:35.903Z,52.26
2022-09-07T07:15:06.623Z,58.58
2022-09-07T07:16:06.651Z,54.24
2022-09-07T07:17:06.612Z,53.70
2022-09-07T07:18:20.331Z,58.65
2022-09-07T07:19:09.727Z,56.84
2022-09-07T07:20:08.734Z,54.85
2022-09-07T07:21:07.760Z,52.44
2022-09-07T07:22:42.621Z,54.30
2022-09-07T07:23:09.731Z,53.30
2022-09-07T07:24:08.390Z,51.31
2022-09-07T07:25:08.691Z,55.58
2022-09-07T07:26:07.685Z,55.40
2022-09-07T07:27:07.679Z,55.65
2022-09-07T07:29:09.661Z,53.50
2022-09-07T07:30:07.683Z,54.14
2022-09-07T07:31:11.340Z,58.59
2022-09-07T07:32:09.639Z,55.74
2022-09-07T07:33:07.719Z,59.40
2022-09-07T07:34:07.699Z,53.61
2022-09-07T07:35:07.615Z,52.41
2022-09-07T07:36:07.610Z,56.07
2022-09-07T07:37:07.599Z,54.48
2022-09-07T07:40:16.996Z,56.10
2022-09-07T07:42:09.564Z,58.13
2022-09-07T07:43:07.767Z,52.40
2022-09-07T07:44:08.547Z,52.93
2022-09-07T07:46:09.624Z,54.69
2022-09-07T07:47:07.527Z,55.74
2022-09-07T07:48:07.526Z,53.74
2022-09-07T07:49:07.537Z,52.43
2022-09-07T07:51:12.133Z,52.81
2022-09-07T07:54:09.501Z,52.64
2022-09-07T07:56:09.479Z,54.74
2022-09-07T07:57:07.650Z,52.09
2022-09-07T07:58:07.452Z,56.22
2022-09-07T07:59:07.461Z,58.51
2022-09-07T08:00:07.428Z,54.02
2022-09-07T08:01:07.470Z,51.48
2022-09-07T08:02:07.504Z,52.04
2022-09-07T08:03:07.406Z,54.01
2022-09-07T08:04:07.426Z,50.39
2022-09-07T08:05:07.390Z,52.03
2022-09-07T08:06:07.383Z,53.12
2022-09-07T08:07:10.611Z,51.18
2022-09-07T08:08:08.365Z,49.46
2022-09-07T08:09:07.381Z,54.85
2022-09-07T08:10:07.364Z,53.65
2022-09-07T08:11:07.345Z,54.52
2022-09-07T08:12:07.333Z,53.07
2022-09-07T08:13:07.329Z,52.02
2022-09-07T08:14:07.348Z,53.73
2022-09-07T08:15:07.318Z,54.08
2022-09-07T08:16:07.334Z,56.33
2022-09-07T08:17:07.293Z,52.63
2022-09-07T08:18:07.285Z,53.12
2022-09-07T08:19:07.302Z,52.31
2022-09-07T08:20:07.291Z,54.82
2022-09-07T08:21:07.262Z,51.71
2022-09-07T08:22:07.262Z,52.84
2022-09-07T08:23:07.252Z,56.80
2022-09-07T08:24:07.266Z,53.58
2022-09-07T08:25:07.244Z,54.18
2022-09-07T08:26:07.242Z,51.99
2022-09-07T08:27:07.222Z,53.29
2022-09-07T08:28:07.238Z,53.33
2022-09-07T08:29:07.230Z,53.26
2022-09-07T08:30:07.192Z,48.26
2022-09-07T08:31:07.234Z,54.66
2022-09-07T08:32:07.185Z,52.63
2022-09-07T08:33:07.174Z,54.96
2022-09-07T08:34:07.193Z,52.26
2022-09-07T08:35:07.178Z,52.50
2022-09-07T08:36:07.153Z,50.92
2022-09-07T08:37:07.156Z,52.21
2022-09-07T08:38:07.143Z,53.27
2022-09-07T08:39:07.156Z,55.34
2022-09-07T08:40:07.262Z,54.32
2022-09-07T08:41:07.118Z,56.50
2022-09-07T08:42:07.111Z,56.26
2022-09-07T08:43:07.097Z,51.99
2022-09-07T08:44:07.111Z,55.10
2022-09-07T08:45:07.068Z,47.32
2022-09-07T08:46:08.104Z,52.66
2022-09-07T08:47:07.064Z,54.77
2022-09-07T08:48:07.055Z,55.07
2022-09-07T08:49:07.078Z,52.08
2022-09-07T08:50:07.378Z,51.15
2022-09-07T08:51:07.041Z,56.15
2022-09-07T08:52:07.028Z,51.33
2022-09-07T08:53:07.021Z,53.30
2022-09-07T08:54:07.038Z,56.51
2022-09-07T08:55:07.010Z,52.15
2022-09-07T08:56:06.997Z,50.48
2022-09-07T08:57:22.399Z,53.73
2022-09-07T08:58:18.025Z,44.25
2022-09-07T08:59:08.011Z,51.09
2022-09-07T09:00:06.965Z,50.71
2022-09-07T09:04:17.265Z,52.35
2022-09-07T09:05:17.581Z,54.34
2022-09-07T09:06:09.011Z,54.97
2022-09-07T09:07:07.037Z,51.60
2022-09-07T09:08:06.908Z,53.83
2022-09-07T09:09:06.922Z,54.24
2022-09-07T09:10:06.894Z,53.47
2022-09-07T09:11:06.884Z,52.12
2022-09-07T09:12:06.903Z,49.99
2022-09-07T09:13:06.870Z,52.97
2022-09-07T09:14:06.894Z,61.57
2022-09-07T09:15:06.866Z,50.38
2022-09-07T09:16:06.913Z,47.52
2022-09-07T09:17:06.847Z,52.34
2022-09-07T09:18:08.161Z,57.25
2022-09-07T09:19:06.854Z,50.02
2022-09-07T09:20:06.824Z,49.94
2022-09-07T09:21:06.815Z,54.37
2022-09-07T09:22:06.806Z,50.85
2022-09-07T09:23:06.798Z,56.13
2022-09-07T09:24:06.823Z,47.82
2022-09-07T09:25:07.786Z,55.00
2022-09-07T09:26:06.777Z,51.25
2022-09-07T09:27:06.773Z,55.36
2022-09-07T09:28:06.765Z,50.69
2022-09-07T09:29:06.756Z,54.27
2022-09-07T09:30:06.780Z,46.93
2022-09-07T09:31:06.757Z,52.23
2022-09-07T09:32:06.734Z,49.67
2022-09-07T09:33:06.731Z,49.34
2022-09-07T09:34:06.723Z,50.88
2022-09-07T09:35:06.740Z,53.08
2022-09-07T09:36:06.702Z,50.16
2022-09-07T09:37:06.693Z,52.47
2022-09-07T09:38:06.689Z,58.90
2022-09-07T09:39:06.680Z,57.17
2022-09-07T09:40:06.771Z,55.89
2022-09-07T09:41:06.663Z,54.44
2022-09-07T09:42:06.652Z,55.17
2022-09-07T09:43:06.653Z,54.26
2022-09-07T09:44:06.650Z,54.46
2022-09-07T09:45:06.660Z,53.38
2022-09-07T09:46:13.900Z,52.41
2022-09-07T09:48:08.616Z,53.76
2022-09-07T09:49:06.607Z,53.92
2022-09-07T09:50:06.952Z,50.78
2022-09-07T09:53:08.580Z,52.64
2022-09-07T09:54:06.624Z,58.68
2022-09-07T09:55:32.645Z,51.57
2022-09-07T09:56:08.568Z,51.36
2022-09-07T09:57:06.546Z,50.08
2022-09-07T10:00:12.102Z,51.79
2022-09-07T10:01:25.414Z,54.41
2022-09-07T10:04:13.157Z,51.00
2022-09-07T10:05:08.513Z,52.23
2022-09-07T10:06:06.477Z,54.31
2022-09-07T10:07:06.472Z,52.74
2022-09-07T10:08:06.467Z,50.05
2022-09-07T10:09:06.460Z,53.22
2022-09-07T10:10:06.470Z,48.37
2022-09-07T10:11:06.440Z,51.72
2022-09-07T10:12:07.409Z,55.43
2022-09-07T10:13:06.429Z,54.45
2022-09-07T10:14:06.420Z,55.38
2022-09-07T10:15:06.439Z,53.52
2022-09-07T10:16:06.555Z,50.06
2022-09-07T10:17:06.407Z,48.56
2022-09-07T10:18:06.386Z,51.67
2022-09-07T10:19:06.404Z,53.84
2022-09-07T10:20:06.428Z,57.97
2022-09-07T10:21:06.395Z,50.94
2022-09-07T10:22:06.360Z,53.08
2022-09-07T10:23:06.361Z,53.96
2022-09-07T10:24:06.357Z,50.33
2022-09-07T10:25:06.368Z,52.96
2022-09-07T10:26:06.334Z,54.24
2022-09-07T10:27:06.324Z,54.20
2022-09-07T10:28:06.319Z,51.80
2022-09-07T10:29:06.853Z,53.33
2022-09-07T10:30:07.329Z,51.90
2022-09-07T10:31:08.059Z,49.98
2022-09-07T10:32:06.281Z,46.47
2022-09-07T10:33:06.286Z,48.26
2022-09-07T10:35:08.287Z,50.56
2022-09-07T10:36:06.256Z,53.43
2022-09-07T10:37:06.242Z,47.19
2022-09-07T10:38:06.235Z,51.57
2022-09-07T10:39:06.238Z,52.87
2022-09-07T10:40:06.278Z,50.40
2022-09-07T10:41:06.249Z,51.83
2022-09-07T10:42:06.222Z,54.53
2022-09-07T10:43:22.077Z,51.44
2022-09-07T10:44:09.292Z,55.05
2022-09-07T10:45:06.217Z,57.77
2022-09-07T10:46:06.245Z,58.73
2022-09-07T10:47:06.262Z,55.03
2022-09-07T10:48:06.190Z,53.94
2022-09-07T10:49:06.165Z,49.21
2022-09-07T10:50:22.111Z,56.00
2022-09-07T10:51:14.082Z,50.00
2022-09-07T10:52:08.133Z,53.20
2022-09-07T10:53:23.494Z,48.84
2022-09-07T10:55:08.138Z,57.20
2022-09-07T10:56:06.116Z,53.76
2022-09-07T10:57:06.099Z,53.94
2022-09-07T10:58:06.136Z,53.00
2022-09-07T10:59:06.119Z,58.60
2022-09-07T11:00:09.656Z,58.69
2022-09-07T11:01:07.111Z,55.26
2022-09-07T11:02:06.063Z,51.53
2022-09-07T11:04:08.047Z,48.08
2022-09-07T11:05:06.068Z,54.13
2022-09-07T11:06:06.028Z,54.42
2022-09-07T11:07:06.029Z,57.30
2022-09-07T11:08:06.019Z,47.87
2022-09-07T11:09:21.424Z,56.10
2022-09-07T11:10:08.044Z,48.97
2022-09-07T11:11:05.997Z,52.67
2022-09-07T11:12:06.004Z,54.00
2022-09-07T11:13:05.983Z,55.21
2022-09-07T11:14:12.839Z,56.78
2022-09-07T11:15:08.005Z,50.61
2022-09-07T11:16:06.339Z,50.05
2022-09-07T11:17:06.090Z,54.52
2022-09-07T11:18:05.944Z,52.83
2022-09-07T11:19:36.965Z,55.60
2022-09-07T11:20:07.979Z,48.90
2022-09-07T11:21:05.975Z,43.62
2022-09-07T11:22:06.030Z,49.82
2022-09-07T11:23:05.908Z,52.61
2022-09-07T11:24:05.890Z,48.30
2022-09-07T11:26:07.908Z,52.72
2022-09-07T11:27:05.866Z,51.35
2022-09-07T11:28:05.856Z,53.30
2022-09-07T11:30:07.913Z,48.90
2022-09-07T11:31:05.914Z,53.34
2022-09-07T11:32:05.829Z,45.90
2022-09-07T11:33:05.821Z,53.74
2022-09-07T11:35:07.804Z,49.87
2022-09-07T11:36:09.860Z,52.18
2022-09-07T11:37:07.806Z,50.71
2022-09-07T11:38:05.808Z,51.91
2022-09-07T11:39:05.775Z,52.50
2022-09-07T11:40:05.842Z,52.24
2022-09-07T11:41:05.783Z,52.71
2022-09-07T11:43:11.313Z,51.90
2022-09-07T11:44:05.759Z,52.41
2022-09-07T11:45:05.730Z,49.22
2022-09-07T11:46:05.778Z,53.04
2022-09-07T11:47:05.719Z,51.84
2022-09-07T11:48:05.701Z,47.97
2022-09-07T11:49:05.701Z,53.69
2022-09-07T11:50:05.704Z,52.90
2022-09-07T11:51:06.707Z,51.59
2022-09-07T11:52:05.769Z,51.18
2022-09-07T11:53:06.670Z,51.74
2022-09-07T11:54:05.663Z,50.70
2022-09-07T11:55:05.655Z,51.51
2022-09-07T11:56:05.675Z,51.99
2022-09-07T11:57:05.644Z,52.82
2022-09-07T11:58:05.637Z,48.64
2022-09-07T11:59:05.626Z,52.87
2022-09-07T12:00:05.721Z,56.18
2022-09-07T12:01:05.648Z,53.70
2022-09-07T12:02:05.654Z,52.95
2022-09-07T12:03:06.641Z,53.02
2022-09-07T12:04:05.685Z,53.69
2022-09-07T12:05:05.579Z,51.28
2022-09-07T12:06:05.596Z,49.80
2022-09-07T12:07:05.575Z,53.55
2022-09-07T12:08:05.561Z,52.47
2022-09-07T12:09:05.558Z,52.41
2022-09-07T12:10:05.621Z,54.45
2022-09-07T12:11:05.573Z,51.21
2022-09-07T12:12:05.531Z,50.56
2022-09-07T12:13:05.525Z,51.23
2022-09-07T12:14:05.524Z,51.76
2022-09-07T12:15:05.509Z,49.02
2022-09-07T12:16:05.680Z,52.36
2022-09-07T12:17:05.491Z,51.26
2022-09-07T12:18:05.506Z,52.30
2022-09-07T12:19:05.485Z,54.20
2022-09-07T12:20:05.473Z,50.61
2022-09-07T12:21:05.494Z,53.81
2022-09-07T12:22:05.490Z,52.37
2022-09-07T12:23:05.847Z,55.32
2022-09-07T12:24:05.443Z,53.81
2022-09-07T12:25:05.437Z,52.78
2022-09-07T12:26:05.423Z,55.05
2022-09-07T12:27:05.446Z,53.09
2022-09-07T12:28:05.411Z,51.35
2022-09-07T12:29:05.414Z,52.93
2022-09-07T12:30:05.398Z,52.10
2022-09-07T12:31:05.428Z,54.24
2022-09-07T12:32:53.462Z,51.33
2022-09-07T12:33:07.444Z,53.58
2022-09-07T12:34:05.375Z,42.79
2022-09-07T12:35:05.357Z,54.24
2022-09-07T12:36:05.376Z,53.49
2022-09-07T12:37:06.800Z,52.01
2022-09-07T12:38:06.337Z,51.69
2022-09-07T12:39:05.324Z,58.09
2022-09-07T12:40:05.370Z,55.08
2022-09-07T12:41:05.337Z,54.38
2022-09-07T12:43:09.825Z,54.95
2022-09-07T12:44:06.290Z,52.59
2022-09-07T12:45:05.289Z,54.96
2022-09-07T12:46:05.355Z,51.56
2022-09-07T12:47:05.273Z,57.93
2022-09-07T12:48:05.262Z,53.72
2022-09-07T12:49:05.256Z,53.53
2022-09-07T12:50:05.251Z,51.92
2022-09-07T12:51:05.273Z,51.20
2022-09-07T12:52:14.905Z,55.91
2022-09-07T12:53:07.236Z,54.19
2022-09-07T12:54:05.231Z,51.83
2022-09-07T12:55:26.566Z,54.68
2022-09-07T12:56:22.507Z,55.43
2022-09-07T12:58:07.186Z,55.14
2022-09-07T12:59:05.181Z,52.41
2022-09-07T13:00:05.172Z,55.31
2022-09-07T13:01:05.600Z,56.42
2022-09-07T13:02:06.244Z,50.99
2022-09-07T13:03:05.366Z,48.92
2022-09-07T13:04:05.209Z,54.37
2022-09-07T13:05:05.132Z,52.37
2022-09-07T13:06:05.129Z,54.63
2022-09-07T13:07:05.151Z,53.75
2022-09-07T13:08:09.081Z,51.75
2022-09-07T13:09:06.105Z,51.32
2022-09-07T13:10:05.100Z,52.82
2022-09-07T13:11:05.094Z,52.69
2022-09-07T13:12:05.427Z,52.61
2022-09-07T13:13:05.077Z,55.75
2022-09-07T13:14:08.689Z,48.92
2022-09-07T13:15:06.062Z,50.78
2022-09-07T13:16:05.092Z,55.03
2022-09-07T13:17:20.507Z,53.81
2022-09-07T13:18:07.040Z,54.53
2022-09-07T13:19:05.033Z,52.99
2022-09-07T13:20:05.027Z,52.65
2022-09-07T13:21:05.022Z,55.76
2022-09-07T13:22:05.030Z,51.99
2022-09-07T13:23:05.004Z,53.99
2022-09-07T13:24:45.502Z,55.72
2022-09-07T13:25:07.009Z,52.75
2022-09-07T13:26:04.981Z,53.73
2022-09-07T13:27:05.002Z,51.34
2022-09-07T13:28:05.997Z,46.40
2022-09-07T13:29:05.957Z,51.95
2022-09-07T13:30:04.959Z,51.14
2022-09-07T13:31:04.990Z,55.01
2022-09-07T13:32:04.957Z,53.52
2022-09-07T13:33:08.598Z,54.31